sensor_id;sensor_type;location;lat;lon;timestamp;P1;durP1;ratioP1;P2;durP2;ratioP2
47882;SDS011;37739;50.350;7.578;2024-03-23T00:54:08;24.87;;;21.87;;
47882;SDS011;37739;50.350;7.578;2024-03-23T00:56:33;24.00;;;21.40;;
47882;SDS011;37739;50.350;7.578;2024-03-23T00:59:01;26.30;;;22.13;;
47882;SDS011;37739;50.350;7.578;2024-03-23T01:01:29;26.63;;;23.83;;
47882;SDS011;37739;50.350;7.578;2024-03-23T01:03:55;26.37;;;22.57;;
47882;SDS011;37739;50.350;7.578;2024-03-23T01:06:20;25.50;;;22.73;;
47882;SDS011;37739;50.350;7.578;2024-03-23T01:08:45;24.07;;;21.20;;
47882;SDS011;37739;50.350;7.578;2024-03-23T01:11:11;23.53;;;21.00;;
47882;SDS011;37739;50.350;7.578;2024-03-23T01:13:37;24.93;;;21.23;;
47882;SDS011;37739;50.350;7.578;2024-03-23T01:16:02;23.43;;;20.90;;
47882;SDS011;37739;50.350;7.578;2024-03-23T01:18:27;25.67;;;21.30;;
47882;SDS011;37739;50.350;7.578;2024-03-23T01:20:54;26.63;;;22.20;;
47882;SDS011;37739;50.350;7.578;2024-03-23T01:23:19;24.40;;;20.87;;
47882;SDS011;37739;50.350;7.578;2024-03-23T01:25:53;22.30;;;19.97;;
47882;SDS011;37739;50.350;7.578;2024-03-23T01:28:21;19.47;;;17.37;;
47882;SDS011;37739;50.350;7.578;2024-03-23T01:30:47;24.50;;;21.83;;
47882;SDS011;37739;50.350;7.578;2024-03-23T01:33:15;28.27;;;23.77;;
47882;SDS011;37739;50.350;7.578;2024-03-23T01:35:43;20.50;;;18.50;;
47882;SDS011;37739;50.350;7.578;2024-03-23T01:38:09;13.07;;;11.77;;
47882;SDS011;37739;50.350;7.578;2024-03-23T01:40:34;11.47;;;10.30;;
47882;SDS011;37739;50.350;7.578;2024-03-23T01:43:03;7.63;;;6.80;;
47882;SDS011;37739;50.350;7.578;2024-03-23T01:45:31;4.53;;;4.13;;
47882;SDS011;37739;50.350;7.578;2024-03-23T01:47:57;4.43;;;3.93;;
47882;SDS011;37739;50.350;7.578;2024-03-23T01:50:26;4.23;;;3.50;;
47882;SDS011;37739;50.350;7.578;2024-03-23T01:52:54;4.47;;;4.00;;
47882;SDS011;37739;50.350;7.578;2024-03-23T01:55:20;5.00;;;4.50;;
47882;SDS011;37739;50.350;7.578;2024-03-23T01:57:48;5.53;;;4.97;;
47882;SDS011;37739;50.350;7.578;2024-03-23T02:00:16;4.23;;;3.83;;
47882;SDS011;37739;50.350;7.578;2024-03-23T02:02:45;3.70;;;3.37;;
47882;SDS011;37739;50.350;7.578;2024-03-23T02:05:11;4.77;;;4.30;;
47882;SDS011;37739;50.350;7.578;2024-03-23T02:07:37;4.93;;;3.53;;
47882;SDS011;37739;50.350;7.578;2024-03-23T02:10:05;4.90;;;3.90;;
47882;SDS011;37739;50.350;7.578;2024-03-23T02:12:31;5.27;;;4.33;;
47882;SDS011;37739;50.350;7.578;2024-03-23T02:14:57;3.37;;;3.07;;
47882;SDS011;37739;50.350;7.578;2024-03-23T02:17:22;3.30;;;2.93;;
47882;SDS011;37739;50.350;7.578;2024-03-23T02:19:47;3.60;;;3.30;;
47882;SDS011;37739;50.350;7.578;2024-03-23T02:22:13;3.50;;;2.03;;
47882;SDS011;37739;50.350;7.578;2024-03-23T02:24:40;2.13;;;1.93;;
47882;SDS011;37739;50.350;7.578;2024-03-23T02:27:11;2.20;;;2.00;;
47882;SDS011;37739;50.350;7.578;2024-03-23T02:29:39;2.27;;;2.00;;
47882;SDS011;37739;50.350;7.578;2024-03-23T02:32:06;2.97;;;2.03;;
47882;SDS011;37739;50.350;7.578;2024-03-23T02:34:34;2.30;;;1.93;;
47882;SDS011;37739;50.350;7.578;2024-03-23T02:37:02;2.00;;;1.40;;
47882;SDS011;37739;50.350;7.578;2024-03-23T02:39:30;2.57;;;1.70;;
47882;SDS011;37739;50.350;7.578;2024-03-23T02:41:55;2.37;;;2.10;;
47882;SDS011;37739;50.350;7.578;2024-03-23T02:44:21;4.40;;;2.13;;
47882;SDS011;37739;50.350;7.578;2024-03-23T02:46:50;3.43;;;2.70;;
47882;SDS011;37739;50.350;7.578;2024-03-23T02:49:20;2.80;;;2.60;;
47882;SDS011;37739;50.350;7.578;2024-03-23T02:51:50;3.03;;;2.60;;
47882;SDS011;37739;50.350;7.578;2024-03-23T02:54:15;3.43;;;2.90;;
47882;SDS011;37739;50.350;7.578;2024-03-23T02:56:41;5.97;;;3.33;;
47882;SDS011;37739;50.350;7.578;2024-03-23T02:59:08;3.73;;;3.40;;
47882;SDS011;37739;50.350;7.578;2024-03-23T03:01:36;4.83;;;3.80;;
47882;SDS011;37739;50.350;7.578;2024-03-23T03:04:04;5.97;;;5.37;;
47882;SDS011;37739;50.350;7.578;2024-03-23T03:06:32;6.10;;;5.03;;
47882;SDS011;37739;50.350;7.578;2024-03-23T03:08:58;5.63;;;4.90;;
47882;SDS011;37739;50.350;7.578;2024-03-23T03:11:23;5.33;;;4.40;;
47882;SDS011;37739;50.350;7.578;2024-03-23T03:13:51;6.20;;;4.83;;
47882;SDS011;37739;50.350;7.578;2024-03-23T03:16:17;5.10;;;4.60;;
47882;SDS011;37739;50.350;7.578;2024-03-23T03:18:44;5.03;;;4.10;;
47882;SDS011;37739;50.350;7.578;2024-03-23T03:21:12;4.20;;;3.60;;
47882;SDS011;37739;50.350;7.578;2024-03-23T03:23:44;5.40;;;3.40;;
47882;SDS011;37739;50.350;7.578;2024-03-23T03:26:09;3.93;;;3.53;;
47882;SDS011;37739;50.350;7.578;2024-03-23T03:28:37;3.63;;;3.33;;
47882;SDS011;37739;50.350;7.578;2024-03-23T03:31:02;4.40;;;4.00;;
47882;SDS011;37739;50.350;7.578;2024-03-23T03:33:28;4.50;;;4.00;;
47882;SDS011;37739;50.350;7.578;2024-03-23T03:35:53;3.67;;;3.37;;
47882;SDS011;37739;50.350;7.578;2024-03-23T03:38:19;4.20;;;3.80;;
47882;SDS011;37739;50.350;7.578;2024-03-23T03:40:44;3.67;;;3.13;;
47882;SDS011;37739;50.350;7.578;2024-03-23T03:43:12;4.50;;;3.77;;
47882;SDS011;37739;50.350;7.578;2024-03-23T03:45:43;4.67;;;3.93;;
47882;SDS011;37739;50.350;7.578;2024-03-23T03:48:19;4.20;;;3.33;;
47882;SDS011;37739;50.350;7.578;2024-03-23T03:50:44;4.60;;;3.93;;
47882;SDS011;37739;50.350;7.578;2024-03-23T03:53:10;4.50;;;3.77;;
47882;SDS011;37739;50.350;7.578;2024-03-23T03:55:35;5.40;;;4.53;;
47882;SDS011;37739;50.350;7.578;2024-03-23T03:58:01;5.10;;;4.60;;
47882;SDS011;37739;50.350;7.578;2024-03-23T04:00:26;4.40;;;3.93;;
47882;SDS011;37739;50.350;7.578;2024-03-23T04:02:52;3.70;;;3.30;;
47882;SDS011;37739;50.350;7.578;2024-03-23T04:05:19;4.30;;;3.40;;
47882;SDS011;37739;50.350;7.578;2024-03-23T04:07:45;4.03;;;3.63;;
47882;SDS011;37739;50.350;7.578;2024-03-23T04:10:13;3.40;;;3.07;;
47882;SDS011;37739;50.350;7.578;2024-03-23T04:12:38;3.60;;;3.13;;
47882;SDS011;37739;50.350;7.578;2024-03-23T04:15:04;3.53;;;3.17;;
47882;SDS011;37739;50.350;7.578;2024-03-23T04:17:32;3.90;;;3.13;;
47882;SDS011;37739;50.350;7.578;2024-03-23T04:19:59;3.70;;;2.77;;
47882;SDS011;37739;50.350;7.578;2024-03-23T04:22:31;2.70;;;2.20;;
47882;SDS011;37739;50.350;7.578;2024-03-23T04:24:56;3.70;;;2.90;;
47882;SDS011;37739;50.350;7.578;2024-03-23T04:27:25;3.60;;;2.50;;
47882;SDS011;37739;50.350;7.578;2024-03-23T04:29:50;2.87;;;2.37;;
47882;SDS011;37739;50.350;7.578;2024-03-23T04:32:19;3.03;;;2.73;;
47882;SDS011;37739;50.350;7.578;2024-03-23T04:34:44;2.30;;;2.00;;
47882;SDS011;37739;50.350;7.578;2024-03-23T04:37:10;2.27;;;2.07;;
47882;SDS011;37739;50.350;7.578;2024-03-23T04:39:36;2.77;;;1.90;;
47882;SDS011;37739;50.350;7.578;2024-03-23T04:42:06;3.70;;;2.20;;
47882;SDS011;37739;50.350;7.578;2024-03-23T04:44:31;2.83;;;2.10;;
47882;SDS011;37739;50.350;7.578;2024-03-23T04:46:57;5.77;;;1.97;;
47882;SDS011;37739;50.350;7.578;2024-03-23T04:49:25;2.90;;;2.07;;
47882;SDS011;37739;50.350;7.578;2024-03-23T04:51:53;4.77;;;2.03;;
47882;SDS011;37739;50.350;7.578;2024-03-23T04:54:20;4.20;;;2.33;;
47882;SDS011;37739;50.350;7.578;2024-03-23T04:56:46;2.43;;;1.53;;
47882;SDS011;37739;50.350;7.578;2024-03-23T04:59:11;2.90;;;2.17;;
47882;SDS011;37739;50.350;7.578;2024-03-23T05:01:36;2.50;;;1.70;;
47882;SDS011;37739;50.350;7.578;2024-03-23T05:04:06;4.00;;;2.03;;
47882;SDS011;37739;50.350;7.578;2024-03-23T05:06:34;3.40;;;1.60;;
47882;SDS011;37739;50.350;7.578;2024-03-23T05:08:59;2.83;;;1.50;;
47882;SDS011;37739;50.350;7.578;2024-03-23T05:11:32;2.80;;;1.50;;
47882;SDS011;37739;50.350;7.578;2024-03-23T05:13:58;4.50;;;1.90;;
47882;SDS011;37739;50.350;7.578;2024-03-23T05:16:26;4.70;;;1.97;;
47882;SDS011;37739;50.350;7.578;2024-03-23T05:18:51;2.50;;;1.70;;
47882;SDS011;37739;50.350;7.578;2024-03-23T05:21:19;3.40;;;1.90;;
47882;SDS011;37739;50.350;7.578;2024-03-23T05:23:45;4.60;;;1.60;;
47882;SDS011;37739;50.350;7.578;2024-03-23T05:26:10;3.10;;;1.60;;
47882;SDS011;37739;50.350;7.578;2024-03-23T05:28:38;4.53;;;1.93;;
47882;SDS011;37739;50.350;7.578;2024-03-23T05:31:03;3.00;;;2.03;;
47882;SDS011;37739;50.350;7.578;2024-03-23T05:33:33;1.73;;;1.60;;
47882;SDS011;37739;50.350;7.578;2024-03-23T05:36:02;3.40;;;2.10;;
47882;SDS011;37739;50.350;7.578;2024-03-23T05:38:28;3.60;;;1.87;;
47882;SDS011;37739;50.350;7.578;2024-03-23T05:40:57;4.07;;;2.27;;
47882;SDS011;37739;50.350;7.578;2024-03-23T05:43:27;2.07;;;1.73;;
47882;SDS011;37739;50.350;7.578;2024-03-23T05:45:56;3.07;;;2.03;;
47882;SDS011;37739;50.350;7.578;2024-03-23T05:48:23;2.67;;;2.27;;
47882;SDS011;37739;50.350;7.578;2024-03-23T05:50:49;2.83;;;1.67;;
47882;SDS011;37739;50.350;7.578;2024-03-23T05:53:18;4.70;;;2.50;;
47882;SDS011;37739;50.350;7.578;2024-03-23T05:55:45;3.10;;;2.00;;
47882;SDS011;37739;50.350;7.578;2024-03-23T05:58:12;5.40;;;2.83;;
47882;SDS011;37739;50.350;7.578;2024-03-23T06:00:38;4.73;;;3.20;;
47882;SDS011;37739;50.350;7.578;2024-03-23T06:03:03;3.27;;;2.90;;
47882;SDS011;37739;50.350;7.578;2024-03-23T06:05:28;4.10;;;3.43;;
47882;SDS011;37739;50.350;7.578;2024-03-23T06:07:56;3.60;;;3.00;;
47882;SDS011;37739;50.350;7.578;2024-03-23T06:10:26;3.27;;;2.97;;
47882;SDS011;37739;50.350;7.578;2024-03-23T06:12:54;7.40;;;3.60;;
47882;SDS011;37739;50.350;7.578;2024-03-23T06:15:19;4.40;;;3.70;;
47882;SDS011;37739;50.350;7.578;2024-03-23T06:17:47;7.60;;;3.60;;
47882;SDS011;37739;50.350;7.578;2024-03-23T06:20:16;4.60;;;3.77;;
47882;SDS011;37739;50.350;7.578;2024-03-23T06:22:41;4.23;;;3.70;;
47882;SDS011;37739;50.350;7.578;2024-03-23T06:25:09;5.10;;;3.20;;
47882;SDS011;37739;50.350;7.578;2024-03-23T06:27:34;9.60;;;4.03;;
47882;SDS011;37739;50.350;7.578;2024-03-23T06:30:04;9.90;;;4.20;;
47882;SDS011;37739;50.350;7.578;2024-03-23T06:32:32;6.90;;;3.90;;
47882;SDS011;37739;50.350;7.578;2024-03-23T06:34:58;8.03;;;3.80;;
47882;SDS011;37739;50.350;7.578;2024-03-23T06:37:23;5.03;;;3.40;;
47882;SDS011;37739;50.350;7.578;2024-03-23T06:39:49;6.83;;;4.10;;
47882;SDS011;37739;50.350;7.578;2024-03-23T06:42:16;7.27;;;3.63;;
47882;SDS011;37739;50.350;7.578;2024-03-23T06:44:43;4.80;;;2.63;;
47882;SDS011;37739;50.350;7.578;2024-03-23T06:47:08;6.60;;;3.40;;
47882;SDS011;37739;50.350;7.578;2024-03-23T06:49:34;6.00;;;3.10;;
47882;SDS011;37739;50.350;7.578;2024-03-23T06:51:59;5.90;;;3.20;;
47882;SDS011;37739;50.350;7.578;2024-03-23T06:54:27;6.90;;;3.60;;
47882;SDS011;37739;50.350;7.578;2024-03-23T06:56:52;3.00;;;2.30;;
47882;SDS011;37739;50.350;7.578;2024-03-23T06:59:20;6.37;;;3.30;;
47882;SDS011;37739;50.350;7.578;2024-03-23T07:01:48;4.97;;;3.73;;
47882;SDS011;37739;50.350;7.578;2024-03-23T07:04:13;4.97;;;3.23;;
47882;SDS011;37739;50.350;7.578;2024-03-23T07:06:44;5.20;;;3.57;;
47882;SDS011;37739;50.350;7.578;2024-03-23T07:09:10;8.17;;;3.83;;
47882;SDS011;37739;50.350;7.578;2024-03-23T07:11:37;7.47;;;4.43;;
47882;SDS011;37739;50.350;7.578;2024-03-23T07:14:07;8.00;;;4.07;;
47882;SDS011;37739;50.350;7.578;2024-03-23T07:16:35;4.63;;;3.80;;
47882;SDS011;37739;50.350;7.578;2024-03-23T07:19:00;9.07;;;3.87;;
47882;SDS011;37739;50.350;7.578;2024-03-23T07:21:28;8.23;;;4.40;;
47882;SDS011;37739;50.350;7.578;2024-03-23T07:23:55;5.03;;;4.00;;
47882;SDS011;37739;50.350;7.578;2024-03-23T07:26:21;4.40;;;3.47;;
47882;SDS011;37739;50.350;7.578;2024-03-23T07:28:46;7.83;;;3.53;;
47882;SDS011;37739;50.350;7.578;2024-03-23T07:31:12;6.80;;;4.60;;
47882;SDS011;37739;50.350;7.578;2024-03-23T07:33:46;4.33;;;3.30;;
47882;SDS011;37739;50.350;7.578;2024-03-23T07:36:12;7.00;;;3.57;;
47882;SDS011;37739;50.350;7.578;2024-03-23T07:38:43;6.33;;;3.60;;
47882;SDS011;37739;50.350;7.578;2024-03-23T07:41:12;4.83;;;3.30;;
47882;SDS011;37739;50.350;7.578;2024-03-23T07:43:44;6.30;;;3.40;;
47882;SDS011;37739;50.350;7.578;2024-03-23T07:46:14;4.97;;;3.60;;
47882;SDS011;37739;50.350;7.578;2024-03-23T07:48:45;6.00;;;3.20;;
47882;SDS011;37739;50.350;7.578;2024-03-23T07:51:17;6.40;;;3.83;;
47882;SDS011;37739;50.350;7.578;2024-03-23T07:53:45;7.37;;;4.60;;
47882;SDS011;37739;50.350;7.578;2024-03-23T07:56:17;6.53;;;3.40;;
47882;SDS011;37739;50.350;7.578;2024-03-23T07:58:46;5.40;;;3.53;;
47882;SDS011;37739;50.350;7.578;2024-03-23T08:01:13;4.73;;;3.50;;
47882;SDS011;37739;50.350;7.578;2024-03-23T08:03:41;8.70;;;4.40;;
47882;SDS011;37739;50.350;7.578;2024-03-23T08:06:11;7.13;;;3.33;;
47882;SDS011;37739;50.350;7.578;2024-03-23T08:08:39;7.13;;;5.10;;
47882;SDS011;37739;50.350;7.578;2024-03-23T08:11:08;6.13;;;4.20;;
47882;SDS011;37739;50.350;7.578;2024-03-23T08:13:34;6.53;;;4.23;;
47882;SDS011;37739;50.350;7.578;2024-03-23T08:16:03;5.57;;;3.50;;
47882;SDS011;37739;50.350;7.578;2024-03-23T08:18:31;5.63;;;3.83;;
47882;SDS011;37739;50.350;7.578;2024-03-23T08:21:00;6.20;;;3.90;;
47882;SDS011;37739;50.350;7.578;2024-03-23T08:23:35;8.37;;;3.73;;
47882;SDS011;37739;50.350;7.578;2024-03-23T08:26:09;6.80;;;3.50;;
47882;SDS011;37739;50.350;7.578;2024-03-23T08:28:40;7.60;;;3.60;;
47882;SDS011;37739;50.350;7.578;2024-03-23T08:31:10;5.87;;;3.43;;
47882;SDS011;37739;50.350;7.578;2024-03-23T08:33:42;7.80;;;3.50;;
47882;SDS011;37739;50.350;7.578;2024-03-23T08:36:10;7.23;;;2.90;;
47882;SDS011;37739;50.350;7.578;2024-03-23T08:38:39;7.00;;;3.00;;
47882;SDS011;37739;50.350;7.578;2024-03-23T08:41:07;6.60;;;2.97;;
47882;SDS011;37739;50.350;7.578;2024-03-23T08:43:37;4.53;;;2.67;;
47882;SDS011;37739;50.350;7.578;2024-03-23T08:48:34;5.70;;;2.97;;
47882;SDS011;37739;50.350;7.578;2024-03-23T08:51:04;7.67;;;3.03;;
47882;SDS011;37739;50.350;7.578;2024-03-23T08:53:33;5.77;;;2.83;;
47882;SDS011;37739;50.350;7.578;2024-03-23T08:56:00;10.03;;;3.07;;
47882;SDS011;37739;50.350;7.578;2024-03-23T08:58:26;5.87;;;2.43;;
47882;SDS011;37739;50.350;7.578;2024-03-23T09:00:55;5.87;;;2.77;;
47882;SDS011;37739;50.350;7.578;2024-03-23T09:03:22;4.90;;;2.80;;
47882;SDS011;37739;50.350;7.578;2024-03-23T09:05:52;6.27;;;2.50;;
47882;SDS011;37739;50.350;7.578;2024-03-23T09:08:19;7.50;;;3.37;;
47882;SDS011;37739;50.350;7.578;2024-03-23T09:10:45;4.90;;;2.33;;
47882;SDS011;37739;50.350;7.578;2024-03-23T09:13:10;5.43;;;2.30;;
47882;SDS011;37739;50.350;7.578;2024-03-23T09:15:47;4.13;;;2.20;;
47882;SDS011;37739;50.350;7.578;2024-03-23T09:18:14;9.70;;;2.40;;
47882;SDS011;37739;50.350;7.578;2024-03-23T09:20:40;4.80;;;2.67;;
47882;SDS011;37739;50.350;7.578;2024-03-23T09:23:07;5.30;;;2.77;;
47882;SDS011;37739;50.350;7.578;2024-03-23T09:25:37;3.47;;;1.87;;
47882;SDS011;37739;50.350;7.578;2024-03-23T09:28:03;4.57;;;2.00;;
47882;SDS011;37739;50.350;7.578;2024-03-23T09:30:30;4.70;;;2.83;;
47882;SDS011;37739;50.350;7.578;2024-03-23T09:32:59;7.70;;;2.57;;
47882;SDS011;37739;50.350;7.578;2024-03-23T09:35:26;5.83;;;2.60;;
47882;SDS011;37739;50.350;7.578;2024-03-23T09:37:51;6.03;;;2.57;;
47882;SDS011;37739;50.350;7.578;2024-03-23T09:40:19;4.30;;;2.47;;
47882;SDS011;37739;50.350;7.578;2024-03-23T09:42:49;6.60;;;3.00;;
47882;SDS011;37739;50.350;7.578;2024-03-23T09:45:19;4.63;;;2.53;;
47882;SDS011;37739;50.350;7.578;2024-03-23T09:47:46;4.20;;;2.40;;
47882;SDS011;37739;50.350;7.578;2024-03-23T09:50:15;3.03;;;2.20;;
47882;SDS011;37739;50.350;7.578;2024-03-23T09:52:41;5.43;;;2.57;;
47882;SDS011;37739;50.350;7.578;2024-03-23T09:55:08;5.80;;;2.73;;
47882;SDS011;37739;50.350;7.578;2024-03-23T09:57:36;5.27;;;2.37;;
47882;SDS011;37739;50.350;7.578;2024-03-23T10:00:02;4.20;;;2.20;;
47882;SDS011;37739;50.350;7.578;2024-03-23T10:02:28;5.50;;;2.10;;
47882;SDS011;37739;50.350;7.578;2024-03-23T10:04:56;4.90;;;2.00;;
47882;SDS011;37739;50.350;7.578;2024-03-23T10:07:22;4.17;;;1.90;;
47882;SDS011;37739;50.350;7.578;2024-03-23T10:09:50;4.83;;;2.23;;
47882;SDS011;37739;50.350;7.578;2024-03-23T10:12:23;5.47;;;2.50;;
47882;SDS011;37739;50.350;7.578;2024-03-23T10:14:49;4.93;;;2.03;;
47882;SDS011;37739;50.350;7.578;2024-03-23T10:19:44;5.93;;;2.20;;
47882;SDS011;37739;50.350;7.578;2024-03-23T10:22:19;3.97;;;2.40;;
47882;SDS011;37739;50.350;7.578;2024-03-23T10:24:47;4.13;;;2.13;;
47882;SDS011;37739;50.350;7.578;2024-03-23T10:27:20;6.80;;;3.40;;
47882;SDS011;37739;50.350;7.578;2024-03-23T10:29:46;4.63;;;2.40;;
47882;SDS011;37739;50.350;7.578;2024-03-23T10:32:17;9.40;;;3.00;;
47882;SDS011;37739;50.350;7.578;2024-03-23T10:34:43;4.83;;;2.63;;
47882;SDS011;37739;50.350;7.578;2024-03-23T10:37:08;6.13;;;3.17;;
47882;SDS011;37739;50.350;7.578;2024-03-23T10:39:38;3.90;;;3.10;;
47882;SDS011;37739;50.350;7.578;2024-03-23T10:42:08;3.07;;;2.33;;
47882;SDS011;37739;50.350;7.578;2024-03-23T10:44:37;5.80;;;2.60;;
47882;SDS011;37739;50.350;7.578;2024-03-23T10:47:07;6.93;;;3.23;;
47882;SDS011;37739;50.350;7.578;2024-03-23T10:49:35;5.90;;;3.10;;
47882;SDS011;37739;50.350;7.578;2024-03-23T10:52:04;5.93;;;3.43;;
47882;SDS011;37739;50.350;7.578;2024-03-23T10:54:32;5.03;;;3.03;;
47882;SDS011;37739;50.350;7.578;2024-03-23T10:59:31;5.03;;;3.30;;
47882;SDS011;37739;50.350;7.578;2024-03-23T11:01:57;5.50;;;3.60;;
47882;SDS011;37739;50.350;7.578;2024-03-23T11:04:34;5.73;;;3.50;;
47882;SDS011;37739;50.350;7.578;2024-03-23T11:09:51;6.43;;;3.80;;
47882;SDS011;37739;50.350;7.578;2024-03-23T11:14:51;3.97;;;2.70;;
47882;SDS011;37739;50.350;7.578;2024-03-23T11:17:21;4.63;;;3.40;;
47882;SDS011;37739;50.350;7.578;2024-03-23T11:19:53;5.23;;;3.30;;
47882;SDS011;37739;50.350;7.578;2024-03-23T11:27:46;3.50;;;2.40;;
47882;SDS011;37739;50.350;7.578;2024-03-23T11:30:16;3.63;;;1.47;;
47882;SDS011;37739;50.350;7.578;2024-03-23T11:32:47;1.77;;;1.00;;
47882;SDS011;37739;50.350;7.578;2024-03-23T11:35:30;1.43;;;0.80;;
47882;SDS011;37739;50.350;7.578;2024-03-23T11:38:03;1.33;;;0.60;;
47882;SDS011;37739;50.350;7.578;2024-03-23T11:40:30;2.70;;;0.80;;
47882;SDS011;37739;50.350;7.578;2024-03-23T11:42:57;2.17;;;0.80;;
47882;SDS011;37739;50.350;7.578;2024-03-23T11:45:27;3.70;;;0.80;;
47882;SDS011;37739;50.350;7.578;2024-03-23T11:50:29;2.17;;;1.10;;
47882;SDS011;37739;50.350;7.578;2024-03-23T11:53:06;3.13;;;0.77;;
47882;SDS011;37739;50.350;7.578;2024-03-23T11:58:27;0.97;;;0.50;;
47882;SDS011;37739;50.350;7.578;2024-03-23T12:03:22;1.40;;;0.90;;
47882;SDS011;37739;50.350;7.578;2024-03-23T12:05:51;1.10;;;0.70;;
47882;SDS011;37739;50.350;7.578;2024-03-23T12:08:22;1.10;;;0.70;;
47882;SDS011;37739;50.350;7.578;2024-03-23T12:10:52;1.20;;;0.83;;
47882;SDS011;37739;50.350;7.578;2024-03-23T12:13:21;1.20;;;0.80;;
47882;SDS011;37739;50.350;7.578;2024-03-23T12:15:48;2.77;;;1.10;;
47882;SDS011;37739;50.350;7.578;2024-03-23T12:18:15;1.73;;;1.00;;
47882;SDS011;37739;50.350;7.578;2024-03-23T12:20:41;1.93;;;0.90;;
47882;SDS011;37739;50.350;7.578;2024-03-23T12:23:07;1.50;;;1.03;;
47882;SDS011;37739;50.350;7.578;2024-03-23T12:25:34;1.50;;;1.00;;
47882;SDS011;37739;50.350;7.578;2024-03-23T12:28:03;1.27;;;0.80;;
47882;SDS011;37739;50.350;7.578;2024-03-23T12:30:31;1.50;;;1.00;;
47882;SDS011;37739;50.350;7.578;2024-03-23T12:32:59;2.00;;;1.13;;
47882;SDS011;37739;50.350;7.578;2024-03-23T12:35:28;1.80;;;1.17;;
47882;SDS011;37739;50.350;7.578;2024-03-23T12:37:53;2.73;;;1.30;;
47882;SDS011;37739;50.350;7.578;2024-03-23T12:40:18;2.33;;;1.33;;
47882;SDS011;37739;50.350;7.578;2024-03-23T12:42:44;2.17;;;1.20;;
47882;SDS011;37739;50.350;7.578;2024-03-23T12:45:09;1.87;;;1.00;;
47882;SDS011;37739;50.350;7.578;2024-03-23T12:47:37;2.90;;;1.20;;
47882;SDS011;37739;50.350;7.578;2024-03-23T12:50:02;3.33;;;1.00;;
47882;SDS011;37739;50.350;7.578;2024-03-23T12:52:28;2.73;;;1.00;;
47882;SDS011;37739;50.350;7.578;2024-03-23T12:54:55;1.77;;;1.17;;
47882;SDS011;37739;50.350;7.578;2024-03-23T12:57:22;2.37;;;1.07;;
47882;SDS011;37739;50.350;7.578;2024-03-23T12:59:52;1.60;;;0.70;;
47882;SDS011;37739;50.350;7.578;2024-03-23T13:02:19;2.90;;;1.93;;
47882;SDS011;37739;50.350;7.578;2024-03-23T13:04:45;1.70;;;0.83;;
47882;SDS011;37739;50.350;7.578;2024-03-23T13:07:14;3.53;;;1.17;;
47882;SDS011;37739;50.350;7.578;2024-03-23T13:09:44;2.30;;;1.00;;
47882;SDS011;37739;50.350;7.578;2024-03-23T13:12:14;1.90;;;1.00;;
47882;SDS011;37739;50.350;7.578;2024-03-23T13:14:43;1.80;;;1.00;;
47882;SDS011;37739;50.350;7.578;2024-03-23T13:17:11;1.20;;;0.90;;
47882;SDS011;37739;50.350;7.578;2024-03-23T13:19:40;3.47;;;1.20;;
47882;SDS011;37739;50.350;7.578;2024-03-23T13:22:05;1.50;;;0.90;;
47882;SDS011;37739;50.350;7.578;2024-03-23T13:24:31;1.73;;;1.10;;
47882;SDS011;37739;50.350;7.578;2024-03-23T13:26:56;2.00;;;1.07;;
47882;SDS011;37739;50.350;7.578;2024-03-23T13:29:24;1.13;;;0.93;;
47882;SDS011;37739;50.350;7.578;2024-03-23T13:31:54;3.10;;;1.40;;
47882;SDS011;37739;50.350;7.578;2024-03-23T13:34:20;3.23;;;1.03;;
47882;SDS011;37739;50.350;7.578;2024-03-23T13:36:46;1.90;;;1.00;;
47882;SDS011;37739;50.350;7.578;2024-03-23T13:39:12;2.30;;;0.90;;
47882;SDS011;37739;50.350;7.578;2024-03-23T13:41:38;1.03;;;0.60;;
47882;SDS011;37739;50.350;7.578;2024-03-23T13:44:09;2.50;;;2.00;;
47882;SDS011;37739;50.350;7.578;2024-03-23T13:46:41;1.97;;;1.73;;
47882;SDS011;37739;50.350;7.578;2024-03-23T13:49:18;1.97;;;1.20;;
47882;SDS011;37739;50.350;7.578;2024-03-23T13:51:50;1.87;;;1.00;;
47882;SDS011;37739;50.350;7.578;2024-03-23T13:54:23;3.33;;;1.30;;
47882;SDS011;37739;50.350;7.578;2024-03-23T13:56:52;3.57;;;0.93;;
47882;SDS011;37739;50.350;7.578;2024-03-23T13:59:21;1.60;;;0.73;;
47882;SDS011;37739;50.350;7.578;2024-03-23T14:01:48;1.90;;;1.17;;
47882;SDS011;37739;50.350;7.578;2024-03-23T14:04:13;1.93;;;0.80;;
47882;SDS011;37739;50.350;7.578;2024-03-23T14:06:41;1.50;;;0.90;;
47882;SDS011;37739;50.350;7.578;2024-03-23T14:09:12;2.10;;;1.00;;
47882;SDS011;37739;50.350;7.578;2024-03-23T14:11:39;1.20;;;0.93;;
47882;SDS011;37739;50.350;7.578;2024-03-23T14:14:06;3.13;;;1.20;;
47882;SDS011;37739;50.350;7.578;2024-03-23T14:16:31;2.13;;;0.90;;
47882;SDS011;37739;50.350;7.578;2024-03-23T14:18:58;1.60;;;0.73;;
47882;SDS011;37739;50.350;7.578;2024-03-23T14:21:23;1.53;;;0.93;;
47882;SDS011;37739;50.350;7.578;2024-03-23T14:23:49;2.07;;;1.00;;
47882;SDS011;37739;50.350;7.578;2024-03-23T14:26:14;2.50;;;1.07;;
47882;SDS011;37739;50.350;7.578;2024-03-23T14:28:42;1.40;;;1.00;;
47882;SDS011;37739;50.350;7.578;2024-03-23T14:31:07;2.30;;;1.60;;
47882;SDS011;37739;50.350;7.578;2024-03-23T14:33:37;1.57;;;0.80;;
47882;SDS011;37739;50.350;7.578;2024-03-23T14:36:06;1.43;;;1.00;;
47882;SDS011;37739;50.350;7.578;2024-03-23T14:38:34;1.80;;;1.30;;
47882;SDS011;37739;50.350;7.578;2024-03-23T14:41:02;2.27;;;1.17;;
47882;SDS011;37739;50.350;7.578;2024-03-23T14:43:28;2.20;;;1.10;;
47882;SDS011;37739;50.350;7.578;2024-03-23T14:46:12;2.40;;;1.07;;
47882;SDS011;37739;50.350;7.578;2024-03-23T14:48:39;3.13;;;1.17;;
47882;SDS011;37739;50.350;7.578;2024-03-23T14:51:08;2.40;;;1.07;;
47882;SDS011;37739;50.350;7.578;2024-03-23T14:53:36;1.57;;;0.90;;
47882;SDS011;37739;50.350;7.578;2024-03-23T14:56:05;3.73;;;3.43;;
47882;SDS011;37739;50.350;7.578;2024-03-23T14:58:31;3.53;;;2.43;;
47882;SDS011;37739;50.350;7.578;2024-03-23T15:01:05;2.53;;;1.80;;
47882;SDS011;37739;50.350;7.578;2024-03-23T15:03:38;2.03;;;1.07;;
47882;SDS011;37739;50.350;7.578;2024-03-23T15:06:08;1.20;;;0.87;;
47882;SDS011;37739;50.350;7.578;2024-03-23T15:08:36;1.70;;;1.07;;
47882;SDS011;37739;50.350;7.578;2024-03-23T15:11:03;2.33;;;1.30;;
47882;SDS011;37739;50.350;7.578;2024-03-23T15:13:31;1.83;;;1.00;;
47882;SDS011;37739;50.350;7.578;2024-03-23T15:16:00;1.43;;;0.80;;
47882;SDS011;37739;50.350;7.578;2024-03-23T15:18:25;1.57;;;0.80;;
47882;SDS011;37739;50.350;7.578;2024-03-23T15:21:00;1.83;;;0.70;;
47882;SDS011;37739;50.350;7.578;2024-03-23T15:23:27;1.40;;;0.70;;
47882;SDS011;37739;50.350;7.578;2024-03-23T15:25:56;1.60;;;0.90;;
47882;SDS011;37739;50.350;7.578;2024-03-23T15:28:28;1.10;;;1.00;;
47882;SDS011;37739;50.350;7.578;2024-03-23T15:31:09;0.97;;;0.70;;
47882;SDS011;37739;50.350;7.578;2024-03-23T15:33:34;2.10;;;0.90;;
47882;SDS011;37739;50.350;7.578;2024-03-23T15:36:04;2.33;;;1.20;;
47882;SDS011;37739;50.350;7.578;2024-03-23T15:38:32;1.40;;;1.00;;
47882;SDS011;37739;50.350;7.578;2024-03-23T15:40:58;1.80;;;1.20;;
47882;SDS011;37739;50.350;7.578;2024-03-23T15:43:26;2.17;;;0.90;;
47882;SDS011;37739;50.350;7.578;2024-03-23T15:45:58;1.60;;;0.90;;
47882;SDS011;37739;50.350;7.578;2024-03-23T15:48:26;2.23;;;1.00;;
47882;SDS011;37739;50.350;7.578;2024-03-23T15:50:55;2.00;;;0.80;;
47882;SDS011;37739;50.350;7.578;2024-03-23T15:53:34;1.40;;;1.00;;
47882;SDS011;37739;50.350;7.578;2024-03-23T15:56:04;2.33;;;0.80;;
47882;SDS011;37739;50.350;7.578;2024-03-23T15:58:33;1.10;;;0.80;;
47882;SDS011;37739;50.350;7.578;2024-03-23T16:01:02;1.60;;;1.00;;
47882;SDS011;37739;50.350;7.578;2024-03-23T16:03:33;1.63;;;0.67;;
47882;SDS011;37739;50.350;7.578;2024-03-23T16:06:02;2.03;;;1.07;;
47882;SDS011;37739;50.350;7.578;2024-03-23T16:08:32;3.60;;;1.67;;